sensor_id;sensor_type;location;lat;lon;timestamp;P1;durP1;ratioP1;P2;durP2;ratioP2
46036;SDS011;31769;49.304;8.428;2022-12-07T00:01:31;17.42;;;13.15;;
46036;SDS011;31769;49.304;8.428;2022-12-07T00:04:33;16.50;;;13.10;;
46036;SDS011;31769;49.304;8.428;2022-12-07T00:07:34;13.38;;;11.27;;
46036;SDS011;31769;49.304;8.428;2022-12-07T00:10:35;13.15;;;10.90;;
46036;SDS011;31769;49.304;8.428;2022-12-07T00:13:35;13.88;;;11.13;;
46036;SDS011;31769;49.304;8.428;2022-12-07T00:16:37;15.45;;;11.05;;
46036;SDS011;31769;49.304;8.428;2022-12-07T00:19:37;13.50;;;11.18;;
46036;SDS011;31769;49.304;8.428;2022-12-07T00:22:38;13.38;;;10.77;;
46036;SDS011;31769;49.304;8.428;2022-12-07T00:25:38;13.23;;;11.00;;
46036;SDS011;31769;49.304;8.428;2022-12-07T00:28:39;13.38;;;10.35;;
46036;SDS011;31769;49.304;8.428;2022-12-07T00:31:40;12.70;;;10.25;;
46036;SDS011;31769;49.304;8.428;2022-12-07T00:34:41;15.55;;;11.60;;
46036;SDS011;31769;49.304;8.428;2022-12-07T00:37:41;15.95;;;12.40;;
46036;SDS011;31769;49.304;8.428;2022-12-07T00:40:42;17.45;;;13.80;;
46036;SDS011;31769;49.304;8.428;2022-12-07T00:43:43;15.20;;;11.90;;
46036;SDS011;31769;49.304;8.428;2022-12-07T00:46:45;19.48;;;13.05;;
46036;SDS011;31769;49.304;8.428;2022-12-07T00:49:46;16.55;;;12.60;;
46036;SDS011;31769;49.304;8.428;2022-12-07T00:52:47;21.10;;;15.85;;
46036;SDS011;31769;49.304;8.428;2022-12-07T00:55:47;16.15;;;12.43;;
46036;SDS011;31769;49.304;8.428;2022-12-07T00:58:55;16.52;;;12.10;;
46036;SDS011;31769;49.304;8.428;2022-12-07T01:01:57;15.68;;;12.13;;
46036;SDS011;31769;49.304;8.428;2022-12-07T01:04:58;17.25;;;11.85;;
46036;SDS011;31769;49.304;8.428;2022-12-07T01:07:58;16.35;;;11.93;;
46036;SDS011;31769;49.304;8.428;2022-12-07T01:11:05;15.82;;;11.95;;
46036;SDS011;31769;49.304;8.428;2022-12-07T01:14:08;16.55;;;12.02;;
46036;SDS011;31769;49.304;8.428;2022-12-07T01:17:09;16.42;;;11.88;;
46036;SDS011;31769;49.304;8.428;2022-12-07T01:20:10;15.57;;;12.07;;
46036;SDS011;31769;49.304;8.428;2022-12-07T01:23:11;16.70;;;11.68;;
46036;SDS011;31769;49.304;8.428;2022-12-07T01:26:13;16.77;;;12.77;;
46036;SDS011;31769;49.304;8.428;2022-12-07T01:29:15;18.10;;;13.52;;
46036;SDS011;31769;49.304;8.428;2022-12-07T01:32:16;18.13;;;13.30;;
46036;SDS011;31769;49.304;8.428;2022-12-07T01:35:17;17.40;;;13.45;;
46036;SDS011;31769;49.304;8.428;2022-12-07T01:38:18;16.85;;;12.98;;
46036;SDS011;31769;49.304;8.428;2022-12-07T01:41:18;17.25;;;13.20;;
46036;SDS011;31769;49.304;8.428;2022-12-07T01:44:27;15.65;;;12.68;;
46036;SDS011;31769;49.304;8.428;2022-12-07T01:47:32;17.52;;;12.70;;
46036;SDS011;31769;49.304;8.428;2022-12-07T01:50:33;17.15;;;12.90;;
46036;SDS011;31769;49.304;8.428;2022-12-07T01:53:35;18.00;;;12.45;;
46036;SDS011;31769;49.304;8.428;2022-12-07T01:56:38;17.80;;;13.00;;
46036;SDS011;31769;49.304;8.428;2022-12-07T01:59:45;17.48;;;12.95;;
46036;SDS011;31769;49.304;8.428;2022-12-07T02:02:48;17.00;;;12.70;;
46036;SDS011;31769;49.304;8.428;2022-12-07T02:05:56;16.77;;;12.05;;
46036;SDS011;31769;49.304;8.428;2022-12-07T02:08:59;14.48;;;12.15;;
46036;SDS011;31769;49.304;8.428;2022-12-07T02:11:59;14.38;;;11.10;;
46036;SDS011;31769;49.304;8.428;2022-12-07T02:15:01;15.63;;;11.73;;
46036;SDS011;31769;49.304;8.428;2022-12-07T02:31:18;14.75;;;11.20;;
46036;SDS011;31769;49.304;8.428;2022-12-07T02:34:33;14.93;;;11.55;;
46036;SDS011;31769;49.304;8.428;2022-12-07T02:37:50;16.25;;;12.07;;
46036;SDS011;31769;49.304;8.428;2022-12-07T02:41:04;19.65;;;11.85;;
46036;SDS011;31769;49.304;8.428;2022-12-07T02:44:16;12.50;;;10.90;;
46036;SDS011;31769;49.304;8.428;2022-12-07T02:47:20;14.55;;;11.25;;
46036;SDS011;31769;49.304;8.428;2022-12-07T02:50:23;15.35;;;11.65;;
46036;SDS011;31769;49.304;8.428;2022-12-07T02:53:28;14.45;;;11.63;;
46036;SDS011;31769;49.304;8.428;2022-12-07T02:56:47;15.05;;;11.27;;
46036;SDS011;31769;49.304;8.428;2022-12-07T02:59:56;15.10;;;11.40;;
46036;SDS011;31769;49.304;8.428;2022-12-07T03:03:09;14.48;;;11.95;;
46036;SDS011;31769;49.304;8.428;2022-12-07T03:06:22;16.75;;;11.55;;
46036;SDS011;31769;49.304;8.428;2022-12-07T03:09:36;16.73;;;11.73;;
46036;SDS011;31769;49.304;8.428;2022-12-07T03:12:55;13.38;;;11.38;;
46036;SDS011;31769;49.304;8.428;2022-12-07T03:16:09;16.33;;;11.85;;
46036;SDS011;31769;49.304;8.428;2022-12-07T03:19:15;16.45;;;11.98;;
46036;SDS011;31769;49.304;8.428;2022-12-07T03:22:19;15.77;;;11.68;;
46036;SDS011;31769;49.304;8.428;2022-12-07T03:25:23;15.43;;;11.30;;
46036;SDS011;31769;49.304;8.428;2022-12-07T03:28:28;14.93;;;11.25;;
46036;SDS011;31769;49.304;8.428;2022-12-07T03:31:44;14.63;;;11.88;;
46036;SDS011;31769;49.304;8.428;2022-12-07T03:34:52;14.70;;;11.98;;
46036;SDS011;31769;49.304;8.428;2022-12-07T03:41:25;12.60;;;10.25;;
46036;SDS011;31769;49.304;8.428;2022-12-07T03:44:31;15.48;;;11.10;;
46036;SDS011;31769;49.304;8.428;2022-12-07T03:47:47;13.10;;;10.38;;
46036;SDS011;31769;49.304;8.428;2022-12-07T03:51:01;14.20;;;10.98;;
46036;SDS011;31769;49.304;8.428;2022-12-07T03:54:10;13.95;;;10.63;;
46036;SDS011;31769;49.304;8.428;2022-12-07T03:57:15;14.32;;;11.02;;
46036;SDS011;31769;49.304;8.428;2022-12-07T04:00:17;16.17;;;12.02;;
46036;SDS011;31769;49.304;8.428;2022-12-07T04:03:18;15.30;;;11.98;;
46036;SDS011;31769;49.304;8.428;2022-12-07T04:06:19;16.27;;;12.40;;
46036;SDS011;31769;49.304;8.428;2022-12-07T04:09:20;15.85;;;12.68;;
46036;SDS011;31769;49.304;8.428;2022-12-07T04:12:21;15.32;;;12.55;;
46036;SDS011;31769;49.304;8.428;2022-12-07T04:15:22;16.27;;;12.70;;
46036;SDS011;31769;49.304;8.428;2022-12-07T04:18:23;17.30;;;13.43;;
46036;SDS011;31769;49.304;8.428;2022-12-07T04:21:23;15.30;;;12.35;;
46036;SDS011;31769;49.304;8.428;2022-12-07T04:24:24;15.10;;;12.38;;
46036;SDS011;31769;49.304;8.428;2022-12-07T04:27:25;14.93;;;11.43;;
46036;SDS011;31769;49.304;8.428;2022-12-07T04:30:26;15.88;;;11.68;;
46036;SDS011;31769;49.304;8.428;2022-12-07T04:33:27;15.63;;;12.10;;
46036;SDS011;31769;49.304;8.428;2022-12-07T04:36:28;16.42;;;12.30;;
46036;SDS011;31769;49.304;8.428;2022-12-07T04:39:30;13.98;;;11.52;;
46036;SDS011;31769;49.304;8.428;2022-12-07T04:42:32;14.35;;;12.00;;
46036;SDS011;31769;49.304;8.428;2022-12-07T04:45:32;15.38;;;11.82;;
46036;SDS011;31769;49.304;8.428;2022-12-07T04:48:33;14.18;;;11.30;;
46036;SDS011;31769;49.304;8.428;2022-12-07T04:51:33;16.92;;;12.13;;
46036;SDS011;31769;49.304;8.428;2022-12-07T04:54:34;16.88;;;12.18;;
46036;SDS011;31769;49.304;8.428;2022-12-07T04:57:35;15.00;;;11.43;;
46036;SDS011;31769;49.304;8.428;2022-12-07T05:00:36;17.45;;;12.43;;
46036;SDS011;31769;49.304;8.428;2022-12-07T05:03:37;14.15;;;12.60;;
46036;SDS011;31769;49.304;8.428;2022-12-07T05:06:37;15.02;;;12.43;;
46036;SDS011;31769;49.304;8.428;2022-12-07T05:09:38;15.48;;;12.65;;
46036;SDS011;31769;49.304;8.428;2022-12-07T05:12:39;14.60;;;12.02;;
46036;SDS011;31769;49.304;8.428;2022-12-07T05:15:40;15.05;;;11.43;;
46036;SDS011;31769;49.304;8.428;2022-12-07T05:18:40;19.17;;;12.85;;
46036;SDS011;31769;49.304;8.428;2022-12-07T05:21:41;14.82;;;12.55;;
46036;SDS011;31769;49.304;8.428;2022-12-07T05:24:42;15.85;;;12.20;;
46036;SDS011;31769;49.304;8.428;2022-12-07T05:27:42;15.65;;;12.05;;
46036;SDS011;31769;49.304;8.428;2022-12-07T05:30:43;15.80;;;12.13;;
46036;SDS011;31769;49.304;8.428;2022-12-07T05:33:44;15.02;;;12.07;;
46036;SDS011;31769;49.304;8.428;2022-12-07T05:36:45;14.95;;;12.02;;
46036;SDS011;31769;49.304;8.428;2022-12-07T05:39:46;15.10;;;11.82;;
46036;SDS011;31769;49.304;8.428;2022-12-07T05:42:46;14.70;;;11.80;;
46036;SDS011;31769;49.304;8.428;2022-12-07T05:45:47;15.27;;;12.10;;
46036;SDS011;31769;49.304;8.428;2022-12-07T05:48:48;14.30;;;11.70;;
46036;SDS011;31769;49.304;8.428;2022-12-07T05:51:48;15.48;;;11.30;;
46036;SDS011;31769;49.304;8.428;2022-12-07T05:54:49;13.85;;;11.60;;
46036;SDS011;31769;49.304;8.428;2022-12-07T05:57:50;13.07;;;11.63;;
46036;SDS011;31769;49.304;8.428;2022-12-07T06:01:09;14.93;;;11.20;;
46036;SDS011;31769;49.304;8.428;2022-12-07T06:04:10;14.25;;;11.30;;
46036;SDS011;31769;49.304;8.428;2022-12-07T06:07:11;15.68;;;11.85;;
46036;SDS011;31769;49.304;8.428;2022-12-07T06:10:14;13.32;;;11.52;;
46036;SDS011;31769;49.304;8.428;2022-12-07T06:13:14;18.80;;;11.23;;
46036;SDS011;31769;49.304;8.428;2022-12-07T06:16:15;14.05;;;11.10;;
46036;SDS011;31769;49.304;8.428;2022-12-07T06:19:16;14.88;;;11.57;;
46036;SDS011;31769;49.304;8.428;2022-12-07T06:22:17;14.80;;;11.35;;
46036;SDS011;31769;49.304;8.428;2022-12-07T06:25:18;15.05;;;11.10;;
46036;SDS011;31769;49.304;8.428;2022-12-07T06:28:19;15.30;;;11.23;;
46036;SDS011;31769;49.304;8.428;2022-12-07T06:31:20;14.35;;;10.30;;
46036;SDS011;31769;49.304;8.428;2022-12-07T06:34:21;14.88;;;11.18;;
46036;SDS011;31769;49.304;8.428;2022-12-07T06:37:26;15.90;;;11.25;;
46036;SDS011;31769;49.304;8.428;2022-12-07T06:40:26;14.07;;;11.07;;
46036;SDS011;31769;49.304;8.428;2022-12-07T06:43:27;14.55;;;10.60;;
46036;SDS011;31769;49.304;8.428;2022-12-07T06:46:28;14.45;;;10.95;;
46036;SDS011;31769;49.304;8.428;2022-12-07T06:49:28;14.65;;;11.65;;
46036;SDS011;31769;49.304;8.428;2022-12-07T06:52:30;15.38;;;11.73;;
46036;SDS011;31769;49.304;8.428;2022-12-07T06:55:30;14.13;;;11.02;;
46036;SDS011;31769;49.304;8.428;2022-12-07T06:58:31;15.35;;;11.75;;
46036;SDS011;31769;49.304;8.428;2022-12-07T07:01:34;14.50;;;11.77;;
46036;SDS011;31769;49.304;8.428;2022-12-07T07:04:35;19.52;;;13.00;;
46036;SDS011;31769;49.304;8.428;2022-12-07T07:07:36;15.52;;;12.52;;
46036;SDS011;31769;49.304;8.428;2022-12-07T07:10:37;15.38;;;11.93;;
46036;SDS011;31769;49.304;8.428;2022-12-07T07:13:38;17.80;;;13.77;;
46036;SDS011;31769;49.304;8.428;2022-12-07T07:16:39;18.23;;;12.75;;
46036;SDS011;31769;49.304;8.428;2022-12-07T07:19:39;15.57;;;11.95;;
46036;SDS011;31769;49.304;8.428;2022-12-07T07:22:40;15.25;;;11.63;;
46036;SDS011;31769;49.304;8.428;2022-12-07T07:25:41;15.63;;;12.15;;
46036;SDS011;31769;49.304;8.428;2022-12-07T07:28:41;14.93;;;11.73;;
46036;SDS011;31769;49.304;8.428;2022-12-07T07:31:42;14.45;;;11.70;;
46036;SDS011;31769;49.304;8.428;2022-12-07T07:34:43;17.38;;;13.25;;
46036;SDS011;31769;49.304;8.428;2022-12-07T07:37:44;22.23;;;16.42;;
46036;SDS011;31769;49.304;8.428;2022-12-07T07:40:44;22.35;;;14.95;;
46036;SDS011;31769;49.304;8.428;2022-12-07T07:43:45;20.95;;;14.20;;
46036;SDS011;31769;49.304;8.428;2022-12-07T07:46:46;19.40;;;13.90;;
46036;SDS011;31769;49.304;8.428;2022-12-07T07:49:47;25.30;;;17.58;;
46036;SDS011;31769;49.304;8.428;2022-12-07T07:52:47;23.17;;;17.90;;
46036;SDS011;31769;49.304;8.428;2022-12-07T07:55:54;23.45;;;13.60;;
46036;SDS011;31769;49.304;8.428;2022-12-07T07:58:55;22.20;;;14.90;;
46036;SDS011;31769;49.304;8.428;2022-12-07T08:01:56;21.88;;;14.07;;
46036;SDS011;31769;49.304;8.428;2022-12-07T08:04:56;22.67;;;15.85;;
46036;SDS011;31769;49.304;8.428;2022-12-07T08:07:57;24.40;;;17.63;;
46036;SDS011;31769;49.304;8.428;2022-12-07T08:10:58;32.67;;;23.98;;
46036;SDS011;31769;49.304;8.428;2022-12-07T08:14:01;20.33;;;14.43;;
46036;SDS011;31769;49.304;8.428;2022-12-07T08:17:03;20.05;;;13.68;;
46036;SDS011;31769;49.304;8.428;2022-12-07T08:20:03;24.15;;;13.85;;
46036;SDS011;31769;49.304;8.428;2022-12-07T08:49:16;32.47;;;18.63;;
46036;SDS011;31769;49.304;8.428;2022-12-07T08:52:26;21.83;;;15.68;;
46036;SDS011;31769;49.304;8.428;2022-12-07T08:55:27;21.60;;;15.20;;
46036;SDS011;31769;49.304;8.428;2022-12-07T08:58:29;21.67;;;14.10;;
46036;SDS011;31769;49.304;8.428;2022-12-07T09:01:29;21.25;;;14.85;;
46036;SDS011;31769;49.304;8.428;2022-12-07T09:04:30;19.55;;;15.60;;
46036;SDS011;31769;49.304;8.428;2022-12-07T09:07:32;19.20;;;14.43;;
46036;SDS011;31769;49.304;8.428;2022-12-07T09:10:34;21.17;;;15.15;;
46036;SDS011;31769;49.304;8.428;2022-12-07T09:13:34;20.10;;;14.77;;
46036;SDS011;31769;49.304;8.428;2022-12-07T09:16:35;21.02;;;14.50;;
46036;SDS011;31769;49.304;8.428;2022-12-07T09:19:36;19.42;;;14.80;;
46036;SDS011;31769;49.304;8.428;2022-12-07T09:22:37;21.90;;;15.02;;
46036;SDS011;31769;49.304;8.428;2022-12-07T09:25:37;22.20;;;15.20;;
46036;SDS011;31769;49.304;8.428;2022-12-07T09:28:38;24.55;;;14.50;;
46036;SDS011;31769;49.304;8.428;2022-12-07T09:31:40;22.23;;;16.05;;
46036;SDS011;31769;49.304;8.428;2022-12-07T09:34:40;24.20;;;16.45;;
46036;SDS011;31769;49.304;8.428;2022-12-07T09:37:41;20.20;;;15.02;;
46036;SDS011;31769;49.304;8.428;2022-12-07T09:40:42;22.67;;;16.35;;
46036;SDS011;31769;49.304;8.428;2022-12-07T09:43:46;21.40;;;15.60;;
46036;SDS011;31769;49.304;8.428;2022-12-07T09:46:47;20.83;;;15.07;;
46036;SDS011;31769;49.304;8.428;2022-12-07T09:49:48;20.40;;;16.48;;
46036;SDS011;31769;49.304;8.428;2022-12-07T09:52:49;21.48;;;16.08;;
46036;SDS011;31769;49.304;8.428;2022-12-07T09:55:50;22.58;;;17.25;;
46036;SDS011;31769;49.304;8.428;2022-12-07T09:58:54;20.23;;;16.75;;
46036;SDS011;31769;49.304;8.428;2022-12-07T10:02:17;20.85;;;15.68;;
46036;SDS011;31769;49.304;8.428;2022-12-07T10:05:32;20.30;;;16.27;;
46036;SDS011;31769;49.304;8.428;2022-12-07T10:08:44;19.52;;;15.02;;
46036;SDS011;31769;49.304;8.428;2022-12-07T10:11:57;20.67;;;15.77;;
46036;SDS011;31769;49.304;8.428;2022-12-07T10:15:03;24.20;;;16.27;;
46036;SDS011;31769;49.304;8.428;2022-12-07T10:18:14;20.08;;;15.30;;
46036;SDS011;31769;49.304;8.428;2022-12-07T10:21:32;22.60;;;16.20;;
46036;SDS011;31769;49.304;8.428;2022-12-07T10:24:33;22.13;;;15.38;;
46036;SDS011;31769;49.304;8.428;2022-12-07T10:27:33;21.65;;;17.25;;
46036;SDS011;31769;49.304;8.428;2022-12-07T10:33:48;21.08;;;15.52;;
46036;SDS011;31769;49.304;8.428;2022-12-07T10:36:52;19.13;;;15.20;;
46036;SDS011;31769;49.304;8.428;2022-12-07T10:39:56;17.48;;;14.93;;
46036;SDS011;31769;49.304;8.428;2022-12-07T10:43:04;18.42;;;15.90;;
46036;SDS011;31769;49.304;8.428;2022-12-07T10:56:01;18.35;;;15.30;;
46036;SDS011;31769;49.304;8.428;2022-12-07T11:02:47;15.75;;;13.98;;
46036;SDS011;31769;49.304;8.428;2022-12-07T11:19:06;16.23;;;13.02;;
46036;SDS011;31769;49.304;8.428;2022-12-07T11:35:45;21.30;;;14.77;;
46036;SDS011;31769;49.304;8.428;2022-12-07T11:38:57;20.05;;;15.43;;
46036;SDS011;31769;49.304;8.428;2022-12-07T11:42:06;20.08;;;15.10;;
46036;SDS011;31769;49.304;8.428;2022-12-07T11:45:16;18.40;;;14.43;;
46036;SDS011;31769;49.304;8.428;2022-12-07T11:48:31;23.15;;;14.70;;
46036;SDS011;31769;49.304;8.428;2022-12-07T11:51:37;18.45;;;14.57;;
46036;SDS011;31769;49.304;8.428;2022-12-07T11:54:40;20.58;;;14.35;;
46036;SDS011;31769;49.304;8.428;2022-12-07T11:57:45;19.05;;;15.05;;
46036;SDS011;31769;49.304;8.428;2022-12-07T12:00:49;20.05;;;15.10;;
46036;SDS011;31769;49.304;8.428;2022-12-07T12:07:12;18.48;;;14.82;;
46036;SDS011;31769;49.304;8.428;2022-12-07T12:10:20;18.77;;;15.02;;
46036;SDS011;31769;49.304;8.428;2022-12-07T12:20:40;22.85;;;15.85;;
46036;SDS011;31769;49.304;8.428;2022-12-07T12:23:45;19.88;;;15.05;;
46036;SDS011;31769;49.304;8.428;2022-12-07T12:27:08;20.65;;;14.98;;
46036;SDS011;31769;49.304;8.428;2022-12-07T12:33:30;21.92;;;15.75;;
46036;SDS011;31769;49.304;8.428;2022-12-07T12:40:07;19.73;;;14.43;;
46036;SDS011;31769;49.304;8.428;2022-12-07T13:25:33;9.27;;;7.07;;
46036;SDS011;31769;49.304;8.428;2022-12-07T13:28:45;9.35;;;7.15;;
46036;SDS011;31769;49.304;8.428;2022-12-07T13:32:04;9.15;;;6.95;;
46036;SDS011;31769;49.304;8.428;2022-12-07T13:35:26;10.18;;;7.70;;
46036;SDS011;31769;49.304;8.428;2022-12-07T13:38:35;10.15;;;7.13;;
46036;SDS011;31769;49.304;8.428;2022-12-07T13:41:37;8.40;;;6.57;;
46036;SDS011;31769;49.304;8.428;2022-12-07T13:44:42;8.75;;;7.38;;
46036;SDS011;31769;49.304;8.428;2022-12-07T13:47:44;9.18;;;6.65;;
46036;SDS011;31769;49.304;8.428;2022-12-07T13:50:54;8.40;;;6.78;;
46036;SDS011;31769;49.304;8.428;2022-12-07T13:54:00;9.23;;;6.70;;
46036;SDS011;31769;49.304;8.428;2022-12-07T13:57:08;10.52;;;7.78;;
46036;SDS011;31769;49.304;8.428;2022-12-07T14:00:28;13.25;;;8.43;;
46036;SDS011;31769;49.304;8.428;2022-12-07T14:03:31;12.75;;;9.18;;
46036;SDS011;31769;49.304;8.428;2022-12-07T14:06:33;14.93;;;9.38;;
46036;SDS011;31769;49.304;8.428;2022-12-07T14:09:34;13.65;;;9.65;;
46036;SDS011;31769;49.304;8.428;2022-12-07T14:12:35;10.60;;;8.27;;
46036;SDS011;31769;49.304;8.428;2022-12-07T14:15:36;10.75;;;8.27;;
46036;SDS011;31769;49.304;8.428;2022-12-07T14:18:38;11.25;;;8.45;;
46036;SDS011;31769;49.304;8.428;2022-12-07T14:21:40;11.18;;;9.13;;
46036;SDS011;31769;49.304;8.428;2022-12-07T14:24:44;14.63;;;9.73;;
46036;SDS011;31769;49.304;8.428;2022-12-07T14:27:55;12.45;;;9.77;;
46036;SDS011;31769;49.304;8.428;2022-12-07T14:31:01;13.45;;;9.00;;
46036;SDS011;31769;49.304;8.428;2022-12-07T14:34:02;17.25;;;9.40;;
46036;SDS011;31769;49.304;8.428;2022-12-07T14:37:03;10.25;;;8.40;;
46036;SDS011;31769;49.304;8.428;2022-12-07T14:40:07;12.20;;;9.35;;
46036;SDS011;31769;49.304;8.428;2022-12-07T14:43:12;10.38;;;8.30;;
46036;SDS011;31769;49.304;8.428;2022-12-07T14:46:15;13.52;;;9.32;;
46036;SDS011;31769;49.304;8.428;2022-12-07T14:49:16;10.05;;;7.80;;
46036;SDS011;31769;49.304;8.428;2022-12-07T14:52:27;12.43;;;8.82;;
46036;SDS011;31769;49.304;8.428;2022-12-07T14:55:30;12.70;;;9.57;;
46036;SDS011;31769;49.304;8.428;2022-12-07T14:58:31;10.65;;;9.20;;
46036;SDS011;31769;49.304;8.428;2022-12-07T15:01:32;10.95;;;8.60;;
46036;SDS011;31769;49.304;8.428;2022-12-07T15:04:33;11.73;;;8.48;;
46036;SDS011;31769;49.304;8.428;2022-12-07T15:07:33;10.05;;;8.40;;
46036;SDS011;31769;49.304;8.428;2022-12-07T15:10:34;11.73;;;9.10;;
46036;SDS011;31769;49.304;8.428;2022-12-07T15:13:38;13.18;;;9.05;;
46036;SDS011;31769;49.304;8.428;2022-12-07T15:16:57;14.40;;;10.05;;
46036;SDS011;31769;49.304;8.428;2022-12-07T15:19:58;13.52;;;9.90;;
46036;SDS011;31769;49.304;8.428;2022-12-07T15:22:59;13.88;;;10.30;;
46036;SDS011;31769;49.304;8.428;2022-12-07T15:26:00;13.52;;;10.15;;
46036;SDS011;31769;49.304;8.428;2022-12-07T15:29:00;17.65;;;12.00;;
46036;SDS011;31769;49.304;8.428;2022-12-07T15:32:01;29.17;;;20.52;;
46036;SDS011;31769;49.304;8.428;2022-12-07T15:35:02;17.52;;;11.45;;
46036;SDS011;31769;49.304;8.428;2022-12-07T15:38:03;15.18;;;10.52;;
46036;SDS011;31769;49.304;8.428;2022-12-07T15:41:03;12.57;;;9.75;;
46036;SDS011;31769;49.304;8.428;2022-12-07T15:44:04;13.93;;;10.25;;
46036;SDS011;31769;49.304;8.428;2022-12-07T15:47:23;13.02;;;9.35;;
46036;SDS011;31769;49.304;8.428;2022-12-07T15:50:24;12.82;;;10.00;;
46036;SDS011;31769;49.304;8.428;2022-12-07T15:53:25;13.15;;;9.68;;
46036;SDS011;31769;49.304;8.428;2022-12-07T15:56:25;13.73;;;9.65;;
46036;SDS011;31769;49.304;8.428;2022-12-07T15:59:26;13.75;;;9.68;;
46036;SDS011;31769;49.304;8.428;2022-12-07T16:02:28;13.43;;;10.18;;
46036;SDS011;31769;49.304;8.428;2022-12-07T16:05:28;15.15;;;11.23;;
46036;SDS011;31769;49.304;8.428;2022-12-07T16:08:29;14.82;;;11.30;;
46036;SDS011;31769;49.304;8.428;2022-12-07T16:11:29;28.13;;;16.42;;
46036;SDS011;31769;49.304;8.428;2022-12-07T16:14:30;17.98;;;12.98;;
46036;SDS011;31769;49.304;8.428;2022-12-07T16:17:33;18.73;;;13.20;;
46036;SDS011;31769;49.304;8.428;2022-12-07T16:20:34;19.40;;;13.45;;
46036;SDS011;31769;49.304;8.428;2022-12-07T16:23:34;20.90;;;12.75;;
46036;SDS011;31769;49.304;8.428;2022-12-07T16:26:35;23.00;;;14.98;;
46036;SDS011;31769;49.304;8.428;2022-12-07T16:29:36;18.10;;;13.45;;
46036;SDS011;31769;49.304;8.428;2022-12-07T16:32:37;18.83;;;13.48;;
46036;SDS011;31769;49.304;8.428;2022-12-07T16:35:38;24.55;;;17.75;;
46036;SDS011;31769;49.304;8.428;2022-12-07T16:38:41;19.00;;;13.57;;
46036;SDS011;31769;49.304;8.428;2022-12-07T16:41:42;18.25;;;13.95;;
46036;SDS011;31769;49.304;8.428;2022-12-07T16:44:42;19.88;;;14.15;;
46036;SDS011;31769;49.304;8.428;2022-12-07T16:47:43;22.98;;;16.52;;
46036;SDS011;31769;49.304;8.428;2022-12-07T16:50:44;26.83;;;17.60;;
46036;SDS011;31769;49.304;8.428;2022-12-07T16:53:45;30.52;;;18.63;;
46036;SDS011;31769;49.304;8.428;2022-12-07T17:04:13;20.90;;;15.52;;
46036;SDS011;31769;49.304;8.428;2022-12-07T17:07:13;21.48;;;15.02;;
46036;SDS011;31769;49.304;8.428;2022-12-07T17:10:14;22.17;;;15.32;;
46036;SDS011;31769;49.304;8.428;2022-12-07T17:13:15;19.58;;;15.32;;
46036;SDS011;31769;49.304;8.428;2022-12-07T17:16:34;22.17;;;14.77;;
46036;SDS011;31769;49.304;8.428;2022-12-07T17:19:35;21.90;;;15.57;;
46036;SDS011;31769;49.304;8.428;2022-12-07T17:22:36;21.45;;;15.88;;
46036;SDS011;31769;49.304;8.428;2022-12-07T17:25:37;20.13;;;14.82;;
46036;SDS011;31769;49.304;8.428;2022-12-07T17:28:38;23.65;;;16.63;;
46036;SDS011;31769;49.304;8.428;2022-12-07T17:31:39;21.58;;;15.55;;
46036;SDS011;31769;49.304;8.428;2022-12-07T17:34:41;20.90;;;15.95;;
46036;SDS011;31769;49.304;8.428;2022-12-07T17:37:41;23.95;;;17.10;;
46036;SDS011;31769;49.304;8.428;2022-12-07T17:40:42;28.58;;;19.20;;
46036;SDS011;31769;49.304;8.428;2022-12-07T17:43:43;23.08;;;16.73;;
46036;SDS011;31769;49.304;8.428;2022-12-07T17:46:44;22.67;;;16.60;;
46036;SDS011;31769;49.304;8.428;2022-12-07T17:49:46;25.35;;;16.55;;
46036;SDS011;31769;49.304;8.428;2022-12-07T17:52:48;25.63;;;18.08;;
46036;SDS011;31769;49.304;8.428;2022-12-07T17:56:07;25.73;;;17.00;;
46036;SDS011;31769;49.304;8.428;2022-12-07T17:59:08;38.17;;;22.15;;
46036;SDS011;31769;49.304;8.428;2022-12-07T18:02:08;27.23;;;17.17;;
46036;SDS011;31769;49.304;8.428;2022-12-07T18:05:10;22.35;;;17.25;;
46036;SDS011;31769;49.304;8.428;2022-12-07T18:08:11;25.40;;;17.83;;
46036;SDS011;31769;49.304;8.428;2022-12-07T18:11:11;26.48;;;18.70;;
46036;SDS011;31769;49.304;8.428;2022-12-07T18:14:12;24.90;;;18.10;;
46036;SDS011;31769;49.304;8.428;2022-12-07T18:17:13;24.98;;;16.70;;
46036;SDS011;31769;49.304;8.428;2022-12-07T18:20:14;23.98;;;17.20;;
46036;SDS011;31769;49.304;8.428;2022-12-07T18:23:14;22.73;;;16.13;;
46036;SDS011;31769;49.304;8.428;2022-12-07T18:26:15;24.15;;;17.55;;
46036;SDS011;31769;49.304;8.428;2022-12-07T18:29:17;28.00;;;18.50;;
46036;SDS011;31769;49.304;8.428;2022-12-07T18:32:18;28.10;;;20.23;;
46036;SDS011;31769;49.304;8.428;2022-12-07T18:35:18;30.80;;;21.83;;
46036;SDS011;31769;49.304;8.428;2022-12-07T18:38:19;26.27;;;19.70;;
46036;SDS011;31769;49.304;8.428;2022-12-07T18:41:20;29.38;;;20.80;;
46036;SDS011;31769;49.304;8.428;2022-12-07T18:44:21;28.08;;;20.15;;
46036;SDS011;31769;49.304;8.428;2022-12-07T18:47:21;25.15;;;19.55;;
46036;SDS011;31769;49.304;8.428;2022-12-07T18:50:22;30.25;;;21.20;;
46036;SDS011;31769;49.304;8.428;2022-12-07T18:53:23;28.20;;;22.40;;
46036;SDS011;31769;49.304;8.428;2022-12-07T18:56:24;29.05;;;20.55;;
46036;SDS011;31769;49.304;8.428;2022-12-07T18:59:25;35.05;;;24.27;;
46036;SDS011;31769;49.304;8.428;2022-12-07T19:02:45;31.73;;;22.20;;
46036;SDS011;31769;49.304;8.428;2022-12-07T19:05:45;81.18;;;46.25;;
46036;SDS011;31769;49.304;8.428;2022-12-07T19:08:46;40.67;;;27.05;;
46036;SDS011;31769;49.304;8.428;2022-12-07T19:11:47;55.03;;;34.72;;
46036;SDS011;31769;49.304;8.428;2022-12-07T19:14:48;157.75;;;92.82;;
46036;SDS011;31769;49.304;8.428;2022-12-07T19:17:49;54.08;;;35.75;;
46036;SDS011;31769;49.304;8.428;2022-12-07T19:20:49;42.47;;;27.80;;
46036;SDS011;31769;49.304;8.428;2022-12-07T19:23:50;36.00;;;25.52;;
46036;SDS011;31769;49.304;8.428;2022-12-07T19:26:51;42.70;;;33.40;;
46036;SDS011;31769;49.304;8.428;2022-12-07T19:29:52;33.67;;;24.45;;
46036;SDS011;31769;49.304;8.428;2022-12-07T19:32:53;38.60;;;27.83;;
46036;SDS011;31769;49.304;8.428;2022-12-07T19:35:53;56.60;;;41.67;;
46036;SDS011;31769;49.304;8.428;2022-12-07T19:38:54;38.20;;;27.88;;
46036;SDS011;31769;49.304;8.428;2022-12-07T19:41:55;32.55;;;22.50;;
46036;SDS011;31769;49.304;8.428;2022-12-07T19:44:56;45.58;;;30.98;;
46036;SDS011;31769;49.304;8.428;2022-12-07T19:47:57;40.38;;;28.73;;
46036;SDS011;31769;49.304;8.428;2022-12-07T19:51:02;33.15;;;24.65;;
46036;SDS011;31769;49.304;8.428;2022-12-07T19:54:03;32.85;;;24.92;;
46036;SDS011;31769;49.304;8.428;2022-12-07T19:57:04;31.05;;;22.58;;
46036;SDS011;31769;49.304;8.428;2022-12-07T20:00:06;30.88;;;24.73;;
46036;SDS011;31769;49.304;8.428;2022-12-07T20:03:08;34.85;;;24.35;;
46036;SDS011;31769;49.304;8.428;2022-12-07T20:06:13;35.03;;;23.38;;
46036;SDS011;31769;49.304;8.428;2022-12-07T20:09:15;31.10;;;22.65;;
46036;SDS011;31769;49.304;8.428;2022-12-07T20:12:17;32.42;;;23.50;;
46036;SDS011;31769;49.304;8.428;2022-12-07T20:15:36;38.10;;;26.65;;
46036;SDS011;31769;49.304;8.428;2022-12-07T20:18:37;41.03;;;29.58;;
46036;SDS011;31769;49.304;8.428;2022-12-07T20:21:38;37.55;;;27.45;;
46036;SDS011;31769;49.304;8.428;2022-12-07T20:24:40;38.40;;;25.98;;
46036;SDS011;31769;49.304;8.428;2022-12-07T20:27:40;38.92;;;27.67;;